sensor_id;sensor_type;location;lat;lon;timestamp;pressure;altitude;pressure_sealevel;temperature;humidity
68197;BME280;55019;49.382;11.358;2024-01-15T00:00:18;95329.13;;;-5.13;100.00
68197;BME280;55019;49.382;11.358;2024-01-15T00:02:44;95330.53;;;-5.34;100.00
68197;BME280;55019;49.382;11.358;2024-01-15T00:05:10;95335.56;;;-5.34;100.00
68197;BME280;55019;49.382;11.358;2024-01-15T00:07:36;95331.13;;;-5.30;100.00
68197;BME280;55019;49.382;11.358;2024-01-15T00:10:02;95336.25;;;-5.19;100.00
68197;BME280;55019;49.382;11.358;2024-01-15T00:12:27;95321.06;;;-5.30;100.00
68197;BME280;55019;49.382;11.358;2024-01-15T00:14:53;95319.75;;;-5.36;100.00
68197;BME280;55019;49.382;11.358;2024-01-15T00:17:19;95309.84;;;-5.39;100.00
68197;BME280;55019;49.382;11.358;2024-01-15T00:19:45;95305.72;;;-5.40;100.00
68197;BME280;55019;49.382;11.358;2024-01-15T00:22:11;95310.25;;;-5.45;100.00
68197;BME280;55019;49.382;11.358;2024-01-15T00:24:36;95299.47;;;-5.47;100.00
68197;BME280;55019;49.382;11.358;2024-01-15T00:27:02;95293.44;;;-5.57;100.00
68197;BME280;55019;49.382;11.358;2024-01-15T00:29:28;95300.16;;;-5.69;100.00
68197;BME280;55019;49.382;11.358;2024-01-15T00:31:54;95292.72;;;-5.59;100.00
68197;BME280;55019;49.382;11.358;2024-01-15T00:34:19;95294.81;;;-5.65;100.00
68197;BME280;55019;49.382;11.358;2024-01-15T00:36:45;95297.44;;;-5.67;100.00
68197;BME280;55019;49.382;11.358;2024-01-15T00:39:11;95303.81;;;-5.61;100.00
68197;BME280;55019;49.382;11.358;2024-01-15T00:41:36;95300.78;;;-5.54;100.00
68197;BME280;55019;49.382;11.358;2024-01-15T00:44:02;95277.13;;;-5.64;100.00
68197;BME280;55019;49.382;11.358;2024-01-15T00:46:28;95273.78;;;-5.76;100.00
68197;BME280;55019;49.382;11.358;2024-01-15T00:48:54;95281.31;;;-5.76;100.00
68197;BME280;55019;49.382;11.358;2024-01-15T00:51:20;95280.03;;;-5.69;100.00
68197;BME280;55019;49.382;11.358;2024-01-15T00:53:45;95280.94;;;-5.70;100.00
68197;BME280;55019;49.382;11.358;2024-01-15T00:56:11;95279.34;;;-5.47;100.00
68197;BME280;55019;49.382;11.358;2024-01-15T00:58:37;95278.34;;;-5.44;100.00
68197;BME280;55019;49.382;11.358;2024-01-15T01:01:03;95278.56;;;-5.35;100.00
68197;BME280;55019;49.382;11.358;2024-01-15T01:03:29;95278.94;;;-5.41;100.00
68197;BME280;55019;49.382;11.358;2024-01-15T01:05:55;95284.78;;;-5.53;100.00
68197;BME280;55019;49.382;11.358;2024-01-15T01:08:20;95277.84;;;-5.37;100.00
68197;BME280;55019;49.382;11.358;2024-01-15T01:10:46;95279.97;;;-5.43;100.00
68197;BME280;55019;49.382;11.358;2024-01-15T01:13:12;95268.66;;;-5.38;100.00
68197;BME280;55019;49.382;11.358;2024-01-15T01:15:37;95271.72;;;-5.45;100.00
68197;BME280;55019;49.382;11.358;2024-01-15T01:18:04;95279.16;;;-5.44;100.00
68197;BME280;55019;49.382;11.358;2024-01-15T01:20:30;95278.56;;;-5.35;100.00
68197;BME280;55019;49.382;11.358;2024-01-15T01:22:55;95289.00;;;-5.41;100.00
68197;BME280;55019;49.382;11.358;2024-01-15T01:25:21;95292.06;;;-5.36;100.00
68197;BME280;55019;49.382;11.358;2024-01-15T01:27:47;95307.47;;;-5.15;100.00
68197;BME280;55019;49.382;11.358;2024-01-15T01:30:13;95295.91;;;-5.05;100.00
68197;BME280;55019;49.382;11.358;2024-01-15T01:32:38;95303.03;;;-4.99;100.00
68197;BME280;55019;49.382;11.358;2024-01-15T01:35:04;95296.47;;;-5.14;100.00
68197;BME280;55019;49.382;11.358;2024-01-15T01:37:30;95293.66;;;-5.10;100.00
68197;BME280;55019;49.382;11.358;2024-01-15T01:39:55;95291.84;;;-5.08;100.00
68197;BME280;55019;49.382;11.358;2024-01-15T01:42:21;95288.03;;;-5.26;100.00
68197;BME280;55019;49.382;11.358;2024-01-15T01:44:47;95278.88;;;-5.27;100.00
68197;BME280;55019;49.382;11.358;2024-01-15T01:47:13;95273.53;;;-5.35;100.00
68197;BME280;55019;49.382;11.358;2024-01-15T01:49:40;95282.38;;;-5.29;100.00
68197;BME280;55019;49.382;11.358;2024-01-15T01:52:06;95281.19;;;-5.24;100.00
68197;BME280;55019;49.382;11.358;2024-01-15T01:54:34;95276.53;;;-5.05;100.00
68197;BME280;55019;49.382;11.358;2024-01-15T01:57:02;95278.78;;;-5.13;100.00
68197;BME280;55019;49.382;11.358;2024-01-15T01:59:28;95277.81;;;-4.87;100.00
68197;BME280;55019;49.382;11.358;2024-01-15T02:01:56;95288.03;;;-4.76;100.00
68197;BME280;55019;49.382;11.358;2024-01-15T02:04:26;95273.69;;;-4.88;100.00
68197;BME280;55019;49.382;11.358;2024-01-15T02:06:52;95276.00;;;-4.85;100.00
68197;BME280;55019;49.382;11.358;2024-01-15T02:09:18;95276.13;;;-4.86;100.00
68197;BME280;55019;49.382;11.358;2024-01-15T02:11:49;95281.28;;;-5.00;100.00
68197;BME280;55019;49.382;11.358;2024-01-15T02:14:15;95275.34;;;-5.12;100.00
68197;BME280;55019;49.382;11.358;2024-01-15T02:16:41;95280.66;;;-5.04;100.00
68197;BME280;55019;49.382;11.358;2024-01-15T02:19:06;95275.44;;;-4.88;100.00
68197;BME280;55019;49.382;11.358;2024-01-15T02:21:32;95266.06;;;-4.99;100.00
68197;BME280;55019;49.382;11.358;2024-01-15T02:23:58;95268.78;;;-5.02;100.00
68197;BME280;55019;49.382;11.358;2024-01-15T02:26:24;95286.41;;;-5.02;100.00
68197;BME280;55019;49.382;11.358;2024-01-15T02:28:51;95266.75;;;-4.97;100.00
68197;BME280;55019;49.382;11.358;2024-01-15T02:31:17;95276.94;;;-4.98;100.00
68197;BME280;55019;49.382;11.358;2024-01-15T02:33:43;95283.69;;;-4.99;100.00
68197;BME280;55019;49.382;11.358;2024-01-15T02:36:11;95283.06;;;-4.90;100.00
68197;BME280;55019;49.382;11.358;2024-01-15T02:38:37;95270.69;;;-4.93;100.00
68197;BME280;55019;49.382;11.358;2024-01-15T02:41:03;95273.69;;;-4.88;100.00
68197;BME280;55019;49.382;11.358;2024-01-15T02:43:29;95279.13;;;-4.69;100.00
68197;BME280;55019;49.382;11.358;2024-01-15T02:45:55;95279.75;;;-4.78;100.00
68197;BME280;55019;49.382;11.358;2024-01-15T02:48:21;95281.72;;;-4.58;100.00
68197;BME280;55019;49.382;11.358;2024-01-15T02:50:46;95277.31;;;-4.67;100.00
68197;BME280;55019;49.382;11.358;2024-01-15T02:53:12;95270.06;;;-4.71;100.00
68197;BME280;55019;49.382;11.358;2024-01-15T02:55:38;95276.41;;;-4.66;100.00
68197;BME280;55019;49.382;11.358;2024-01-15T02:58:04;95271.66;;;-4.70;100.00
68197;BME280;55019;49.382;11.358;2024-01-15T03:00:29;95273.41;;;-4.71;100.00
68197;BME280;55019;49.382;11.358;2024-01-15T03:02:55;95274.69;;;-4.65;100.00
68197;BME280;55019;49.382;11.358;2024-01-15T03:05:21;95282.84;;;-4.62;100.00
68197;BME280;55019;49.382;11.358;2024-01-15T03:07:47;95283.75;;;-4.50;100.00
68197;BME280;55019;49.382;11.358;2024-01-15T03:10:13;95290.53;;;-4.40;100.00
68197;BME280;55019;49.382;11.358;2024-01-15T03:12:38;95284.09;;;-4.44;100.00
68197;BME280;55019;49.382;11.358;2024-01-15T03:15:05;95283.47;;;-4.35;100.00
68197;BME280;55019;49.382;11.358;2024-01-15T03:17:30;95273.59;;;-4.38;100.00
68197;BME280;55019;49.382;11.358;2024-01-15T03:19:56;95273.53;;;-4.49;100.00
68197;BME280;55019;49.382;11.358;2024-01-15T03:22:22;95273.22;;;-4.44;100.00
68197;BME280;55019;49.382;11.358;2024-01-15T03:24:47;95265.34;;;-4.40;100.00
68197;BME280;55019;49.382;11.358;2024-01-15T03:27:13;95263.91;;;-4.31;100.00
68197;BME280;55019;49.382;11.358;2024-01-15T03:29:40;95260.88;;;-4.24;100.00
68197;BME280;55019;49.382;11.358;2024-01-15T03:32:05;95255.22;;;-4.28;100.00
68197;BME280;55019;49.382;11.358;2024-01-15T03:34:31;95251.59;;;-4.36;100.00
68197;BME280;55019;49.382;11.358;2024-01-15T03:36:57;95250.00;;;-4.37;100.00
68197;BME280;55019;49.382;11.358;2024-01-15T03:39:24;95253.22;;;-4.35;100.00
68197;BME280;55019;49.382;11.358;2024-01-15T03:41:49;95248.16;;;-4.35;100.00
68197;BME280;55019;49.382;11.358;2024-01-15T03:44:15;95246.38;;;-4.33;100.00
68197;BME280;55019;49.382;11.358;2024-01-15T03:46:41;95245.94;;;-4.27;100.00
68197;BME280;55019;49.382;11.358;2024-01-15T03:49:06;95246.16;;;-4.30;100.00
68197;BME280;55019;49.382;11.358;2024-01-15T03:51:32;95238.44;;;-4.39;100.00
68197;BME280;55019;49.382;11.358;2024-01-15T03:53:58;95242.22;;;-4.34;100.00
68197;BME280;55019;49.382;11.358;2024-01-15T03:56:23;95244.56;;;-4.31;100.00
68197;BME280;55019;49.382;11.358;2024-01-15T03:58:49;95231.56;;;-4.37;100.00
68197;BME280;55019;49.382;11.358;2024-01-15T04:01:15;95229.63;;;-4.34;100.00
68197;BME280;55019;49.382;11.358;2024-01-15T04:03:40;95232.88;;;-4.32;100.00
68197;BME280;55019;49.382;11.358;2024-01-15T04:06:06;95234.94;;;-4.26;100.00
68197;BME280;55019;49.382;11.358;2024-01-15T04:08:32;95225.88;;;-4.28;100.00
68197;BME280;55019;49.382;11.358;2024-01-15T04:10:57;95220.53;;;-4.24;100.00
68197;BME280;55019;49.382;11.358;2024-01-15T04:13:23;95220.19;;;-4.20;100.00
68197;BME280;55019;49.382;11.358;2024-01-15T04:15:48;95214.78;;;-4.26;100.00
68197;BME280;55019;49.382;11.358;2024-01-15T04:18:16;95202.75;;;-4.23;100.00
68197;BME280;55019;49.382;11.358;2024-01-15T04:20:41;95212.31;;;-4.15;100.00
68197;BME280;55019;49.382;11.358;2024-01-15T04:23:07;95208.19;;;-4.16;100.00
68197;BME280;55019;49.382;11.358;2024-01-15T04:25:33;95204.97;;;-4.18;100.00
68197;BME280;55019;49.382;11.358;2024-01-15T04:27:58;95219.75;;;-4.14;100.00
68197;BME280;55019;49.382;11.358;2024-01-15T04:30:24;95212.63;;;-4.20;100.00
68197;BME280;55019;49.382;11.358;2024-01-15T04:32:50;95214.59;;;-4.12;100.00
68197;BME280;55019;49.382;11.358;2024-01-15T04:35:15;95221.03;;;-4.08;100.00
68197;BME280;55019;49.382;11.358;2024-01-15T04:37:41;95202.91;;;-4.13;100.00
68197;BME280;55019;49.382;11.358;2024-01-15T04:40:07;95214.59;;;-4.12;100.00
68197;BME280;55019;49.382;11.358;2024-01-15T04:42:33;95209.56;;;-4.12;100.00
68197;BME280;55019;49.382;11.358;2024-01-15T04:44:59;95212.13;;;-4.01;100.00
68197;BME280;55019;49.382;11.358;2024-01-15T04:47:25;95204.81;;;-3.93;100.00
68197;BME280;55019;49.382;11.358;2024-01-15T04:49:50;95210.66;;;-3.93;100.00
68197;BME280;55019;49.382;11.358;2024-01-15T04:52:16;95199.16;;;-4.08;100.00
68197;BME280;55019;49.382;11.358;2024-01-15T04:54:42;95206.72;;;-4.08;100.00
68197;BME280;55019;49.382;11.358;2024-01-15T04:57:08;95215.78;;;-4.05;100.00
68197;BME280;55019;49.382;11.358;2024-01-15T04:59:33;95214.16;;;-4.06;100.00
68197;BME280;55019;49.382;11.358;2024-01-15T05:01:59;95208.69;;;-4.00;100.00
68197;BME280;55019;49.382;11.358;2024-01-15T05:04:25;95210.06;;;-3.96;100.00
68197;BME280;55019;49.382;11.358;2024-01-15T05:06:50;95205.47;;;-4.02;100.00
68197;BME280;55019;49.382;11.358;2024-01-15T05:09:16;95205.47;;;-4.02;100.00
68197;BME280;55019;49.382;11.358;2024-01-15T05:11:43;95199.97;;;-3.96;100.00
68197;BME280;55019;49.382;11.358;2024-01-15T05:14:09;95198.97;;;-3.94;100.00
68197;BME280;55019;49.382;11.358;2024-01-15T05:16:35;95188.75;;;-3.92;100.00
68197;BME280;55019;49.382;11.358;2024-01-15T05:19:00;95195.97;;;-3.99;100.00
68197;BME280;55019;49.382;11.358;2024-01-15T05:21:26;95194.66;;;-3.81;100.00
68197;BME280;55019;49.382;11.358;2024-01-15T05:23:51;95193.09;;;-3.94;100.00
68197;BME280;55019;49.382;11.358;2024-01-15T05:26:17;95185.91;;;-3.88;100.00
68197;BME280;55019;49.382;11.358;2024-01-15T05:28:43;95182.56;;;-3.88;100.00
68197;BME280;55019;49.382;11.358;2024-01-15T05:31:09;95174.09;;;-3.87;100.00
68197;BME280;55019;49.382;11.358;2024-01-15T05:33:35;95186.38;;;-3.83;100.00
68197;BME280;55019;49.382;11.358;2024-01-15T05:36:00;95186.47;;;-3.84;100.00
68197;BME280;55019;49.382;11.358;2024-01-15T05:38:27;95181.13;;;-3.80;100.00
68197;BME280;55019;49.382;11.358;2024-01-15T05:40:53;95189.00;;;-3.84;100.00
68197;BME280;55019;49.382;11.358;2024-01-15T05:43:19;95194.44;;;-3.78;100.00
68197;BME280;55019;49.382;11.358;2024-01-15T05:45:45;95195.03;;;-3.74;100.00
68197;BME280;55019;49.382;11.358;2024-01-15T05:48:11;95188.94;;;-3.72;100.00
68197;BME280;55019;49.382;11.358;2024-01-15T05:50:38;95192.97;;;-3.69;100.00
68197;BME280;55019;49.382;11.358;2024-01-15T05:53:04;95181.25;;;-3.70;100.00
68197;BME280;55019;49.382;11.358;2024-01-15T05:55:30;95192.16;;;-3.70;100.00
68197;BME280;55019;49.382;11.358;2024-01-15T05:57:55;95184.69;;;-3.71;100.00
68197;BME280;55019;49.382;11.358;2024-01-15T06:00:21;95176.22;;;-3.70;100.00
68197;BME280;55019;49.382;11.358;2024-01-15T06:02:47;95186.09;;;-3.67;100.00
68197;BME280;55019;49.382;11.358;2024-01-15T06:05:13;95176.91;;;-3.68;100.00
68197;BME280;55019;49.382;11.358;2024-01-15T06:07:39;95177.81;;;-3.69;100.00
68197;BME280;55019;49.382;11.358;2024-01-15T06:10:05;95180.81;;;-3.64;100.00
68197;BME280;55019;49.382;11.358;2024-01-15T06:12:31;95182.44;;;-3.52;100.00
68197;BME280;55019;49.382;11.358;2024-01-15T06:14:59;95180.59;;;-3.61;100.00
68197;BME280;55019;49.382;11.358;2024-01-15T06:17:24;95187.00;;;-3.57;100.00
68197;BME280;55019;49.382;11.358;2024-01-15T06:19:50;95189.63;;;-3.59;100.00
68197;BME280;55019;49.382;11.358;2024-01-15T06:22:16;95183.13;;;-3.50;100.00
68197;BME280;55019;49.382;11.358;2024-01-15T06:24:42;95184.16;;;-3.53;100.00
68197;BME280;55019;49.382;11.358;2024-01-15T06:27:08;95180.25;;;-3.57;100.00
68197;BME280;55019;49.382;11.358;2024-01-15T06:29:37;95179.81;;;-3.51;100.00
68197;BME280;55019;49.382;11.358;2024-01-15T06:32:03;95174.84;;;-3.52;100.00
68197;BME280;55019;49.382;11.358;2024-01-15T06:34:29;95179.13;;;-3.53;100.00
68197;BME280;55019;49.382;11.358;2024-01-15T06:36:55;95172.78;;;-3.47;100.00
68197;BME280;55019;49.382;11.358;2024-01-15T06:39:20;95175.78;;;-3.42;100.00
68197;BME280;55019;49.382;11.358;2024-01-15T06:41:47;95179.00;;;-3.40;100.00
68197;BME280;55019;49.382;11.358;2024-01-15T06:44:12;95179.00;;;-3.40;100.00
68197;BME280;55019;49.382;11.358;2024-01-15T06:46:42;95175.31;;;-3.36;100.00
68197;BME280;55019;49.382;11.358;2024-01-15T06:49:09;95171.88;;;-3.35;100.00
68197;BME280;55019;49.382;11.358;2024-01-15T06:51:35;95160.31;;;-3.38;100.00
68197;BME280;55019;49.382;11.358;2024-01-15T06:54:01;95171.66;;;-3.32;100.00
68197;BME280;55019;49.382;11.358;2024-01-15T06:56:27;95175.47;;;-3.38;100.00
68197;BME280;55019;49.382;11.358;2024-01-15T06:58:53;95168.00;;;-3.28;100.00
68197;BME280;55019;49.382;11.358;2024-01-15T07:01:18;95165.44;;;-3.39;100.00
68197;BME280;55019;49.382;11.358;2024-01-15T07:03:44;95160.41;;;-3.39;100.00
68197;BME280;55019;49.382;11.358;2024-01-15T07:06:11;95166.16;;;-3.37;100.00
68197;BME280;55019;49.382;11.358;2024-01-15T07:08:37;95160.41;;;-3.39;100.00
68197;BME280;55019;49.382;11.358;2024-01-15T07:11:06;95160.75;;;-3.44;100.00
68197;BME280;55019;49.382;11.358;2024-01-15T07:13:32;95171.66;;;-3.43;100.00
68197;BME280;55019;49.382;11.358;2024-01-15T07:15:58;95166.59;;;-3.43;100.00
68197;BME280;55019;49.382;11.358;2024-01-15T07:18:23;95174.63;;;-3.38;100.00
68197;BME280;55019;49.382;11.358;2024-01-15T07:20:49;95176.94;;;-3.35;100.00
68197;BME280;55019;49.382;11.358;2024-01-15T07:23:15;95176.16;;;-3.36;100.00
68197;BME280;55019;49.382;11.358;2024-01-15T07:25:41;95174.19;;;-3.32;100.00
68197;BME280;55019;49.382;11.358;2024-01-15T07:28:06;95185.09;;;-3.32;100.00
68197;BME280;55019;49.382;11.358;2024-01-15T07:30:32;95183.16;;;-3.28;100.00
68197;BME280;55019;49.382;11.358;2024-01-15T07:32:58;95193.81;;;-3.25;100.00
68197;BME280;55019;49.382;11.358;2024-01-15T07:35:23;95182.94;;;-3.14;100.00
68197;BME280;55019;49.382;11.358;2024-01-15T07:37:49;95190.97;;;-3.20;100.00
68197;BME280;55019;49.382;11.358;2024-01-15T07:40:15;95184.88;;;-3.18;100.00
68197;BME280;55019;49.382;11.358;2024-01-15T07:42:41;95189.59;;;-3.24;100.00
68197;BME280;55019;49.382;11.358;2024-01-15T07:45:11;95192.22;;;-3.26;100.00
68197;BME280;55019;49.382;11.358;2024-01-15T07:47:37;95190.25;;;-3.33;100.00
68197;BME280;55019;49.382;11.358;2024-01-15T07:50:03;95198.53;;;-3.20;100.00
68197;BME280;55019;49.382;11.358;2024-01-15T07:52:30;95192.69;;;-3.21;100.00
68197;BME280;55019;49.382;11.358;2024-01-15T07:54:56;95201.06;;;-3.20;100.00
68197;BME280;55019;49.382;11.358;2024-01-15T07:57:22;95199.00;;;-3.26;100.00
68197;BME280;55019;49.382;11.358;2024-01-15T07:59:48;95189.38;;;-3.21;100.00
68197;BME280;55019;49.382;11.358;2024-01-15T08:02:14;95181.66;;;-3.20;100.00
68197;BME280;55019;49.382;11.358;2024-01-15T08:04:40;95193.03;;;-3.25;100.00
68197;BME280;55019;49.382;11.358;2024-01-15T08:07:06;95184.53;;;-3.24;100.00
68197;BME280;55019;49.382;11.358;2024-01-15T08:09:35;95184.78;;;-3.16;100.00
68197;BME280;55019;49.382;11.358;2024-01-15T08:12:01;95180.03;;;-3.21;100.00
68197;BME280;55019;49.382;11.358;2024-01-15T08:14:27;95194.97;;;-3.18;100.00
68197;BME280;55019;49.382;11.358;2024-01-15T08:16:53;95191.66;;;-3.18;100.00
68197;BME280;55019;49.382;11.358;2024-01-15T08:19:18;95192.34;;;-3.16;100.00
68197;BME280;55019;49.382;11.358;2024-01-15T08:21:45;95189.81;;;-3.16;100.00
68197;BME280;55019;49.382;11.358;2024-01-15T08:24:11;95195.78;;;-3.17;100.00
68197;BME280;55019;49.382;11.358;2024-01-15T08:26:37;95196.94;;;-3.10;100.00
68197;BME280;55019;49.382;11.358;2024-01-15T08:29:03;95187.28;;;-3.16;100.00
68197;BME280;55019;49.382;11.358;2024-01-15T08:31:29;95190.50;;;-3.03;100.00
68197;BME280;55019;49.382;11.358;2024-01-15T08:33:55;95186.13;;;-3.01;100.00
68197;BME280;55019;49.382;11.358;2024-01-15T08:36:21;95194.41;;;-2.99;100.00
68197;BME280;55019;49.382;11.358;2024-01-15T08:38:47;95189.81;;;-3.05;100.00
68197;BME280;55019;49.382;11.358;2024-01-15T08:41:13;95187.75;;;-3.00;100.00
68197;BME280;55019;49.382;11.358;2024-01-15T08:43:39;95188.78;;;-3.03;100.00
68197;BME280;55019;49.382;11.358;2024-01-15T08:46:05;95186.59;;;-2.96;100.00
68197;BME280;55019;49.382;11.358;2024-01-15T08:48:31;95194.16;;;-2.96;100.00
68197;BME280;55019;49.382;11.358;2024-01-15T08:50:57;95192.09;;;-2.91;100.00
68197;BME280;55019;49.382;11.358;2024-01-15T08:53:23;95179.38;;;-2.90;100.00
68197;BME280;55019;49.382;11.358;2024-01-15T08:55:49;95185.44;;;-2.92;100.00
68197;BME280;55019;49.382;11.358;2024-01-15T08:58:14;95171.88;;;-2.91;100.00
68197;BME280;55019;49.382;11.358;2024-01-15T09:00:40;95179.00;;;-2.75;100.00
68197;BME280;55019;49.382;11.358;2024-01-15T09:03:06;95176.22;;;-2.83;100.00
68197;BME280;55019;49.382;11.358;2024-01-15T09:05:34;95184.06;;;-2.75;100.00
68197;BME280;55019;49.382;11.358;2024-01-15T09:07:59;95185.31;;;-2.80;100.00
68197;BME280;55019;49.382;11.358;2024-01-15T09:10:25;95191.28;;;-2.70;100.00
68197;BME280;55019;49.382;11.358;2024-01-15T09:12:51;95184.50;;;-2.70;100.00
68197;BME280;55019;49.382;11.358;2024-01-15T09:15:16;95190.25;;;-2.68;100.00
68197;BME280;55019;49.382;11.358;2024-01-15T09:17:42;95190.59;;;-2.72;100.00
68197;BME280;55019;49.382;11.358;2024-01-15T09:20:08;95193.47;;;-2.66;100.00
68197;BME280;55019;49.382;11.358;2024-01-15T09:22:37;95190.81;;;-2.64;100.00
68197;BME280;55019;49.382;11.358;2024-01-15T09:25:04;95188.28;;;-2.75;100.00
68197;BME280;55019;49.382;11.358;2024-01-15T09:27:30;95196.44;;;-2.61;100.00
68197;BME280;55019;49.382;11.358;2024-01-15T09:29:56;95188.66;;;-2.69;100.00
68197;BME280;55019;49.382;11.358;2024-01-15T09:32:22;95192.06;;;-2.59;100.00
68197;BME280;55019;49.382;11.358;2024-01-15T09:34:48;95195.53;;;-2.60;100.00
68197;BME280;55019;49.382;11.358;2024-01-15T09:37:14;95198.72;;;-2.58;100.00
68197;BME280;55019;49.382;11.358;2024-01-15T09:39:40;95188.84;;;-2.61;100.00
68197;BME280;55019;49.382;11.358;2024-01-15T09:42:07;95205.28;;;-2.66;100.00
68197;BME280;55019;49.382;11.358;2024-01-15T09:44:33;95196.44;;;-2.61;100.00
68197;BME280;55019;49.382;11.358;2024-01-15T09:47:00;95199.19;;;-2.53;100.00
68197;BME280;55019;49.382;11.358;2024-01-15T09:49:26;95199.66;;;-2.59;100.00
68197;BME280;55019;49.382;11.358;2024-01-15T09:51:52;95182.06;;;-2.60;100.00
68197;BME280;55019;49.382;11.358;2024-01-15T09:54:18;95186.53;;;-2.53;100.00
68197;BME280;55019;49.382;11.358;2024-01-15T09:56:47;95185.69;;;-2.31;100.00
68197;BME280;55019;49.382;11.358;2024-01-15T09:59:16;95176.84;;;-2.37;100.00
68197;BME280;55019;49.382;11.358;2024-01-15T10:01:46;95168.06;;;-2.22;100.00
68197;BME280;55019;49.382;11.358;2024-01-15T10:04:14;95175.72;;;-2.12;100.00
68197;BME280;55019;49.382;11.358;2024-01-15T10:06:46;95170.16;;;-1.95;100.00
68197;BME280;55019;49.382;11.358;2024-01-15T10:09:14;95164.13;;;-2.15;100.00
68197;BME280;55019;49.382;11.358;2024-01-15T10:11:42;95161.78;;;-2.07;100.00
68197;BME280;55019;49.382;11.358;2024-01-15T10:14:12;95175.59;;;-2.11;100.00
68197;BME280;55019;49.382;11.358;2024-01-15T10:16:41;95173.19;;;-2.12;100.00
68197;BME280;55019;49.382;11.358;2024-01-15T10:19:07;95169.47;;;-2.08;100.00
68197;BME280;55019;49.382;11.358;2024-01-15T10:21:34;95165.94;;;-2.06;100.00
68197;BME280;55019;49.382;11.358;2024-01-15T10:24:06;95166.59;;;-2.04;100.00
68197;BME280;55019;49.382;11.358;2024-01-15T10:26:32;95147.63;;;-2.09;100.00
68197;BME280;55019;49.382;11.358;2024-01-15T10:29:01;95145.88;;;-1.98;100.00
68197;BME280;55019;49.382;11.358;2024-01-15T10:31:27;95149.56;;;-2.02;100.00
68197;BME280;55019;49.382;11.358;2024-01-15T10:33:54;95153.28;;;-2.06;100.00
68197;BME280;55019;49.382;11.358;2024-01-15T10:36:22;95153.03;;;-2.03;100.00
68197;BME280;55019;49.382;11.358;2024-01-15T10:38:48;95155.56;;;-2.03;100.00
68197;BME280;55019;49.382;11.358;2024-01-15T10:41:13;95147.63;;;-2.09;100.00
68197;BME280;55019;49.382;11.358;2024-01-15T10:43:39;95147.03;;;-2.02;100.00
68197;BME280;55019;49.382;11.358;2024-01-15T10:46:08;95150.06;;;-2.08;100.00
68197;BME280;55019;49.382;11.358;2024-01-15T10:48:34;95145.34;;;-2.12;100.00
68197;BME280;55019;49.382;11.358;2024-01-15T10:51:01;95137.22;;;-2.16;100.00
68197;BME280;55019;49.382;11.358;2024-01-15T10:53:38;95134.69;;;-2.16;100.00
68197;BME280;55019;49.382;11.358;2024-01-15T10:56:05;95137.28;;;-2.06;100.00
68197;BME280;55019;49.382;11.358;2024-01-15T10:58:33;95135.88;;;-1.99;100.00
68197;BME280;55019;49.382;11.358;2024-01-15T11:01:00;95137.50;;;-1.98;100.00
68197;BME280;55019;49.382;11.358;2024-01-15T11:03:27;95133.81;;;-2.05;100.00
68197;BME280;55019;49.382;11.358;2024-01-15T11:05:53;95139.25;;;-2.10;100.00
68197;BME280;55019;49.382;11.358;2024-01-15T11:08:19;95137.84;;;-2.03;100.00
68197;BME280;55019;49.382;11.358;2024-01-15T11:10:52;95132.22;;;-2.06;100.00
68197;BME280;55019;49.382;11.358;2024-01-15T11:13:22;95134.56;;;-2.14;100.00
68197;BME280;55019;49.382;11.358;2024-01-15T11:16:06;95128.16;;;-1.98;100.00
68197;BME280;55019;49.382;11.358;2024-01-15T11:18:35;95125.28;;;-2.04;100.00
68197;BME280;55019;49.382;11.358;2024-01-15T11:34:13;95116.09;;;-2.05;100.00
68197;BME280;55019;49.382;11.358;2024-01-15T11:41:55;95112.16;;;-2.19;100.00
68197;BME280;55019;49.382;11.358;2024-01-15T11:44:21;95104.94;;;-2.03;100.00
68197;BME280;55019;49.382;11.358;2024-01-15T11:46:57;95108.66;;;-2.07;100.00
68197;BME280;55019;49.382;11.358;2024-01-15T11:51:59;95109.50;;;-2.17;100.00
68197;BME280;55019;49.382;11.358;2024-01-15T11:54:29;95101.72;;;-2.25;100.00
68197;BME280;55019;49.382;11.358;2024-01-15T11:57:00;95110.84;;;-2.13;100.00
68197;BME280;55019;49.382;11.358;2024-01-15T11:59:29;95104.94;;;-2.03;100.00
68197;BME280;55019;49.382;11.358;2024-01-15T12:01:58;95096.06;;;-2.18;100.00
68197;BME280;55019;49.382;11.358;2024-01-15T12:04:24;95109.81;;;-2.11;100.00
68197;BME280;55019;49.382;11.358;2024-01-15T12:06:50;95102.59;;;-2.15;100.00
68197;BME280;55019;49.382;11.358;2024-01-15T12:09:19;95111.47;;;-2.21;100.00
68197;BME280;55019;49.382;11.358;2024-01-15T12:11:51;95098.84;;;-2.21;100.00
68197;BME280;55019;49.382;11.358;2024-01-15T12:14:23;95091.91;;;-2.19;100.00
68197;BME280;55019;49.382;11.358;2024-01-15T12:16:49;95098.72;;;-1.99;100.00
68197;BME280;55019;49.382;11.358;2024-01-15T12:19:15;95112.78;;;-2.06;100.00
68197;BME280;55019;49.382;11.358;2024-01-15T12:21:41;95103.91;;;-2.00;100.00
68197;BME280;55019;49.382;11.358;2024-01-15T12:24:07;95100.19;;;-2.17;100.00
68197;BME280;55019;49.382;11.358;2024-01-15T12:26:33;95106.22;;;-2.08;100.00
68197;BME280;55019;49.382;11.358;2024-01-15T12:29:02;95097.59;;;-2.06;100.00
68197;BME280;55019;49.382;11.358;2024-01-15T12:31:29;95093.31;;;-2.05;100.00
68197;BME280;55019;49.382;11.358;2024-01-15T12:33:56;95090.94;;;-2.07;100.00
68197;BME280;55019;49.382;11.358;2024-01-15T12:36:21;95093.41;;;-1.96;100.00
68197;BME280;55019;49.382;11.358;2024-01-15T12:38:47;95094.50;;;-1.89;100.00
68197;BME280;55019;49.382;11.358;2024-01-15T12:41:13;95093.81;;;-1.91;100.00
68197;BME280;55019;49.382;11.358;2024-01-15T12:43:43;95099.63;;;-2.00;100.00
68197;BME280;55019;49.382;11.358;2024-01-15T12:46:08;95093.31;;;-2.05;100.00
68197;BME280;55019;49.382;11.358;2024-01-15T12:48:37;95092.03;;;-2.00;100.00
68197;BME280;55019;49.382;11.358;2024-01-15T12:51:05;95094.50;;;-1.89;100.00
68197;BME280;55019;49.382;11.358;2024-01-15T12:53:31;95089.41;;;-1.98;100.00
68197;BME280;55019;49.382;11.358;2024-01-15T12:55:56;95096.59;;;-1.94;100.00